createdAt,value
2018-08-30T00:00:31.835Z,2.39
2018-08-30T00:02:23.768Z,1.91
2018-08-30T00:03:23.759Z,1.62
2018-08-30T00:04:23.816Z,1.82
2018-08-30T00:05:23.797Z,1.53
2018-08-30T00:06:23.820Z,1.43
2018-08-30T00:07:23.833Z,1.53
2018-08-30T00:08:23.854Z,1.72
2018-08-30T00:09:23.872Z,2.01
2018-08-30T00:10:23.891Z,1.82
2018-08-30T00:11:23.914Z,1.91
2018-08-30T00:12:23.932Z,2.20
2018-08-30T00:13:23.944Z,2.11
2018-08-30T00:14:23.966Z,2.01
2018-08-30T00:15:23.985Z,1.53
2018-08-30T00:16:24.004Z,1.34
2018-08-30T00:17:24.021Z,1.43
2018-08-30T00:18:24.042Z,2.29
2018-08-30T00:19:24.067Z,2.78
2018-08-30T00:20:24.081Z,2.58
2018-08-30T00:21:24.095Z,3.54
2018-08-30T00:22:24.116Z,2.97
2018-08-30T00:23:24.168Z,2.68
2018-08-30T00:24:24.153Z,2.97
2018-08-30T00:25:24.169Z,3.06
2018-08-30T00:26:24.253Z,3.25
2018-08-30T00:27:24.204Z,3.64
2018-08-30T00:28:24.297Z,4.79
2018-08-30T00:29:24.271Z,5.07
2018-08-30T00:30:24.260Z,5.74
2018-08-30T00:31:24.280Z,5.07
2018-08-30T00:32:24.300Z,4.60
2018-08-30T00:33:24.320Z,4.11
2018-08-30T00:34:24.337Z,6.99
2018-08-30T00:35:24.357Z,8.33
2018-08-30T00:36:24.373Z,7.56
2018-08-30T00:37:24.395Z,5.84
2018-08-30T00:38:24.423Z,6.23
2018-08-30T00:39:24.437Z,6.80
2018-08-30T00:40:24.453Z,6.41
2018-08-30T00:41:24.488Z,7.09
2018-08-30T00:42:24.488Z,6.70
2018-08-30T00:43:24.506Z,6.23
2018-08-30T00:44:24.521Z,6.32
2018-08-30T00:45:24.548Z,6.23
2018-08-30T00:46:24.564Z,5.55
2018-08-30T00:47:24.580Z,4.79
2018-08-30T00:48:24.599Z,5.55
2018-08-30T00:49:24.617Z,4.79
2018-08-30T00:50:24.638Z,4.98
2018-08-30T00:51:24.654Z,5.36
2018-08-30T00:52:24.675Z,4.88
2018-08-30T00:53:24.691Z,4.69
2018-08-30T00:54:24.712Z,4.88
2018-08-30T00:55:24.729Z,5.65
2018-08-30T00:56:24.748Z,5.46
2018-08-30T00:57:24.766Z,6.70
2018-08-30T00:58:24.787Z,6.90
2018-08-30T00:59:24.804Z,6.80
2018-08-30T01:00:24.824Z,5.84
2018-08-30T01:01:24.842Z,4.60
2018-08-30T01:02:24.861Z,4.11
2018-08-30T01:03:24.879Z,4.79
2018-08-30T01:04:24.895Z,5.36
2018-08-30T01:05:24.917Z,5.74
2018-08-30T01:06:24.935Z,5.27
2018-08-30T01:07:24.957Z,5.36
2018-08-30T01:08:24.971Z,5.27
2018-08-30T01:09:25.007Z,5.65
2018-08-30T01:10:25.009Z,4.69
2018-08-30T01:11:25.028Z,4.88
2018-08-30T01:12:25.047Z,5.17
2018-08-30T01:13:25.070Z,4.88
2018-08-30T01:14:25.088Z,3.92
2018-08-30T01:15:25.103Z,3.92
2018-08-30T01:16:25.122Z,3.25
2018-08-30T01:17:25.140Z,2.97
2018-08-30T01:18:25.171Z,2.97
2018-08-30T01:19:25.175Z,3.06
2018-08-30T01:20:25.198Z,3.54
2018-08-30T01:21:25.217Z,3.74
2018-08-30T01:22:25.236Z,3.92
2018-08-30T01:23:25.252Z,4.69
2018-08-30T01:24:25.272Z,5.36
2018-08-30T01:25:25.293Z,4.98
2018-08-30T01:26:25.313Z,4.21
2018-08-30T01:27:25.326Z,4.31
2018-08-30T01:28:25.345Z,4.79
2018-08-30T01:29:25.367Z,4.69
2018-08-30T01:30:25.390Z,4.02
2018-08-30T01:31:25.401Z,3.64
2018-08-30T01:32:25.419Z,4.69
2018-08-30T01:33:25.445Z,4.50
2018-08-30T01:34:25.462Z,4.50
2018-08-30T01:35:25.478Z,4.88
2018-08-30T01:36:25.497Z,5.07
2018-08-30T01:37:25.521Z,5.46
2018-08-30T01:38:25.536Z,4.79
2018-08-30T01:39:25.554Z,4.40
2018-08-30T01:40:25.575Z,4.11
2018-08-30T01:41:25.598Z,4.60
2018-08-30T01:42:25.614Z,4.31
2018-08-30T01:43:25.639Z,3.83
2018-08-30T01:44:25.650Z,4.60
2018-08-30T01:45:25.669Z,4.98
2018-08-30T01:46:25.687Z,5.46
2018-08-30T01:47:25.702Z,5.36
2018-08-30T01:48:25.728Z,4.88
2018-08-30T01:49:25.742Z,4.21
2018-08-30T01:50:25.761Z,4.98
2018-08-30T01:51:25.779Z,5.36
2018-08-30T01:52:25.799Z,5.36
2018-08-30T01:53:25.818Z,6.23
2018-08-30T01:54:25.839Z,5.84
2018-08-30T01:55:25.857Z,5.65
2018-08-30T01:56:25.882Z,5.46
2018-08-30T01:57:25.894Z,5.36
2018-08-30T01:58:25.916Z,5.65
2018-08-30T01:59:25.929Z,5.36
2018-08-30T02:00:25.954Z,5.55
2018-08-30T02:01:25.971Z,5.36
2018-08-30T02:02:25.986Z,5.74
2018-08-30T02:03:26.009Z,6.99
2018-08-30T02:04:26.028Z,8.23
2018-08-30T02:05:26.045Z,7.28
2018-08-30T02:06:26.065Z,8.43
2018-08-30T02:07:26.081Z,7.95
2018-08-30T02:08:26.102Z,7.86
2018-08-30T02:09:26.118Z,7.18
2018-08-30T02:10:26.143Z,6.80
2018-08-30T02:11:26.156Z,7.37
2018-08-30T02:12:26.180Z,6.99
2018-08-30T02:13:26.198Z,7.37
2018-08-30T02:14:26.215Z,6.80
2018-08-30T02:15:26.233Z,7.76
2018-08-30T02:16:26.253Z,8.33
2018-08-30T02:17:26.271Z,8.43
2018-08-30T02:18:26.293Z,8.62
2018-08-30T02:19:26.313Z,8.72
2018-08-30T02:20:26.329Z,7.76
2018-08-30T02:21:26.349Z,7.66
2018-08-30T02:22:26.365Z,7.86
2018-08-30T02:23:26.385Z,7.67
2018-08-30T02:24:26.404Z,6.99
2018-08-30T02:25:26.428Z,6.32
2018-08-30T02:26:26.443Z,6.23
2018-08-30T02:27:26.462Z,6.23
2018-08-30T02:28:26.485Z,6.70
2018-08-30T02:29:26.503Z,6.51
2018-08-30T02:30:26.523Z,6.70
2018-08-30T02:31:26.537Z,6.32
2018-08-30T02:32:26.556Z,6.23
2018-08-30T02:33:26.573Z,6.23
2018-08-30T02:34:26.593Z,6.03
2018-08-30T02:35:26.612Z,5.46
2018-08-30T02:36:26.633Z,5.46
2018-08-30T02:37:26.655Z,5.94
2018-08-30T02:38:26.670Z,6.51
2018-08-30T02:39:26.692Z,6.32
2018-08-30T02:40:26.716Z,6.99
2018-08-30T02:41:26.733Z,7.18
2018-08-30T02:42:26.744Z,6.80
2018-08-30T02:43:26.766Z,6.23
2018-08-30T02:44:26.784Z,6.23
2018-08-30T02:45:26.815Z,6.32
2018-08-30T02:46:26.819Z,6.99
2018-08-30T02:47:26.838Z,6.99
2018-08-30T02:48:26.857Z,6.99
2018-08-30T02:49:26.877Z,7.18
2018-08-30T02:50:26.902Z,6.90
2018-08-30T02:51:26.914Z,6.70
2018-08-30T02:52:26.935Z,6.90
2018-08-30T02:53:26.953Z,6.90
2018-08-30T02:54:26.973Z,6.13
2018-08-30T02:55:26.997Z,5.94
2018-08-30T02:56:27.010Z,5.36
2018-08-30T02:57:27.027Z,4.98
2018-08-30T02:58:27.052Z,4.88
2018-08-30T02:59:27.078Z,4.79
2018-08-30T03:00:27.087Z,5.07
2018-08-30T03:01:27.109Z,5.36
2018-08-30T03:02:27.125Z,5.74
2018-08-30T03:03:27.145Z,5.65
2018-08-30T03:04:27.161Z,4.69
2018-08-30T03:05:27.178Z,5.55
2018-08-30T03:06:27.201Z,6.23
2018-08-30T03:07:27.223Z,6.23
2018-08-30T03:38:02.984Z,2.97
2018-08-30T03:39:02.970Z,2.39
2018-08-30T03:40:54.896Z,1.15
2018-08-30T03:41:54.881Z,1.15
2018-08-30T03:43:46.811Z,0.76
2018-08-30T03:44:46.802Z,0.29
2018-08-30T03:46:38.710Z,0.00
2018-08-30T03:47:38.724Z,0.00
2018-08-30T03:49:30.653Z,0.00
2018-08-30T03:50:30.646Z,0.00
2018-08-30T03:52:22.555Z,0.09
2018-08-30T03:53:22.565Z,0.00
2018-08-30T03:55:14.550Z,0.00
2018-08-30T03:56:14.484Z,0.00
2018-08-30T03:58:06.400Z,0.00
2018-08-30T03:59:06.408Z,0.00
2018-08-30T04:00:58.343Z,0.00
2018-08-30T04:01:58.331Z,0.00
2018-08-30T04:03:50.270Z,1.25
2018-08-30T04:04:50.261Z,1.15
2018-08-30T04:06:42.171Z,0.48
2018-08-30T04:07:42.184Z,1.05
2018-08-30T04:09:34.114Z,1.25
2018-08-30T04:10:34.112Z,1.25
2018-08-30T04:12:26.026Z,0.76
2018-08-30T04:13:26.043Z,0.67
2018-08-30T04:15:17.972Z,1.25
2018-08-30T04:16:17.960Z,1.25
2018-08-30T04:18:09.875Z,0.38
2018-08-30T04:19:09.887Z,0.38
2018-08-30T04:21:01.832Z,0.29
2018-08-30T04:22:01.889Z,0.38
2018-08-30T04:23:53.759Z,0.29
2018-08-30T04:24:53.748Z,0.29
2018-08-30T04:26:45.667Z,0.00
2018-08-30T04:27:45.673Z,0.19
2018-08-30T04:29:37.618Z,0.09
2018-08-30T04:30:37.608Z,0.00
2018-08-30T04:32:29.524Z,0.00
2018-08-30T04:33:29.532Z,0.38
2018-08-30T04:35:21.476Z,0.00
2018-08-30T04:36:21.470Z,0.00
2018-08-30T04:38:13.387Z,0.38
2018-08-30T04:39:13.400Z,0.67
2018-08-30T04:41:05.332Z,0.67
2018-08-30T04:42:05.324Z,0.38
2018-08-30T04:43:57.270Z,0.38
2018-08-30T04:44:57.251Z,0.67
2018-08-30T04:46:49.177Z,0.48
2018-08-30T04:47:49.184Z,0.86
2018-08-30T04:49:41.123Z,1.15
2018-08-30T04:50:41.222Z,0.95
2018-08-30T04:52:33.037Z,1.25
2018-08-30T04:53:33.047Z,0.67
2018-08-30T04:55:24.997Z,0.95
2018-08-30T04:56:24.993Z,0.95
2018-08-30T04:58:16.915Z,0.76
2018-08-30T04:59:16.929Z,1.15
2018-08-30T05:01:08.869Z,0.86
2018-08-30T05:02:08.863Z,1.15
2018-08-30T05:04:00.777Z,0.67
2018-08-30T05:05:00.793Z,0.38
2018-08-30T05:06:52.734Z,0.95
2018-08-30T05:07:52.728Z,0.48
2018-08-30T05:09:44.670Z,0.29
2018-08-30T05:10:44.661Z,0.38
2018-08-30T05:12:36.579Z,0.00
2018-08-30T05:13:36.589Z,1.25
2018-08-30T05:15:28.528Z,1.15
2018-08-30T05:16:28.583Z,1.25
2018-08-30T05:18:20.436Z,1.34
2018-08-30T05:19:20.452Z,1.25
2018-08-30T05:21:12.389Z,1.34
2018-08-30T05:22:12.384Z,1.43
2018-08-30T05:24:04.300Z,1.53
2018-08-30T05:25:04.306Z,1.43
2018-08-30T05:26:56.244Z,0.38
2018-08-30T05:27:56.236Z,0.38
2018-08-30T05:29:48.180Z,1.05
2018-08-30T05:30:48.167Z,0.48
2018-08-30T05:32:40.090Z,0.67
2018-08-30T05:33:40.106Z,2.39
2018-08-30T05:35:32.102Z,3.64
2018-08-30T05:36:32.043Z,4.88
2018-08-30T05:38:23.957Z,4.69
2018-08-30T05:39:23.976Z,4.02
2018-08-30T05:41:15.912Z,5.75
2018-08-30T05:42:15.907Z,5.75
2018-08-30T05:44:07.826Z,7.38
2018-08-30T05:45:07.839Z,8.62
2018-08-30T05:46:59.781Z,9.20
2018-08-30T05:47:59.778Z,9.77
2018-08-30T05:49:51.712Z,8.62
2018-08-30T05:50:51.701Z,7.86
2018-08-30T05:52:43.625Z,10.16
2018-08-30T05:53:43.633Z,10.83
2018-08-30T05:55:35.580Z,9.87
2018-08-30T05:56:35.576Z,11.40
2018-08-30T05:58:27.490Z,10.25
2018-08-30T05:59:27.499Z,10.83
2018-08-30T06:01:19.640Z,13.42
2018-08-30T06:02:19.627Z,12.56
2018-08-30T06:04:11.555Z,12.18
2018-08-30T06:05:11.561Z,11.69
2018-08-30T06:07:03.500Z,18.41
2018-08-30T06:08:03.494Z,18.69
2018-08-30T06:09:55.430Z,19.65
2018-08-30T06:10:55.441Z,18.60
2018-08-30T06:12:47.438Z,17.45
2018-08-30T06:13:47.459Z,19.08
2018-08-30T06:15:39.399Z,25.98
2018-08-30T06:16:39.390Z,24.55
2018-08-30T06:18:31.313Z,24.64
2018-08-30T06:19:31.320Z,24.16
2018-08-30T06:21:23.333Z,27.52
2018-08-30T06:22:23.327Z,25.23
2018-08-30T06:24:15.245Z,27.63
2018-08-30T06:25:15.258Z,32.90
2018-08-30T06:27:07.299Z,34.15
2018-08-30T06:28:07.293Z,40.10
2018-08-30T06:29:59.232Z,33.09
2018-08-30T06:30:59.223Z,34.15
2018-08-30T06:32:51.197Z,33.00
2018-08-30T06:33:51.156Z,34.15
2018-08-30T06:35:43.094Z,32.42
2018-08-30T06:36:43.113Z,35.28
2018-08-30T06:38:35.043Z,33.00
2018-08-30T06:39:35.033Z,33.09
2018-08-30T06:41:26.981Z,36.65
2018-08-30T06:42:26.960Z,43.94
2018-08-30T06:44:18.876Z,41.16
2018-08-30T06:45:18.959Z,43.94
2018-08-30T06:47:10.826Z,48.93
2018-08-30T06:48:10.817Z,47.97
2018-08-30T06:50:02.745Z,45.95
2018-08-30T06:51:02.750Z,47.87
2018-08-30T06:52:54.693Z,46.07
2018-08-30T06:53:54.681Z,47.41
2018-08-30T06:55:46.626Z,49.52
2018-08-30T06:56:46.612Z,51.64
2018-08-30T06:58:38.535Z,53.46
2018-08-30T06:59:38.549Z,63.83
2018-08-30T07:01:30.799Z,63.28
2018-08-30T07:02:30.477Z,62.93
2018-08-30T07:04:22.438Z,73.41
2018-08-30T07:05:22.423Z,71.96
2018-08-30T07:07:14.356Z,67.83
2018-08-30T07:08:14.435Z,64.85
2018-08-30T07:10:06.277Z,65.14
2018-08-30T07:11:06.362Z,71.52
2018-08-30T07:12:58.220Z,82.90
2018-08-30T07:13:58.215Z,88.71
2018-08-30T07:15:50.159Z,88.33
2018-08-30T07:16:50.148Z,90.11
2018-08-30T07:18:42.097Z,98.10
2018-08-30T07:19:42.097Z,93.91
2018-08-30T07:21:34.045Z,94.20
2018-08-30T07:22:34.219Z,94.34
2018-08-30T07:24:25.964Z,93.15
2018-08-30T07:25:25.967Z,89.68
2018-08-30T07:27:17.913Z,95.26
2018-08-30T07:28:17.903Z,87.08
2018-08-30T07:30:09.831Z,93.96
2018-08-30T07:31:09.840Z,94.06
2018-08-30T07:33:01.773Z,98.92
2018-08-30T07:34:01.785Z,94.10
2018-08-30T07:35:53.712Z,94.20
2018-08-30T07:36:53.710Z,92.61
2018-08-30T07:38:45.638Z,95.21
2018-08-30T07:39:45.655Z,95.02
2018-08-30T07:41:37.596Z,97.86
2018-08-30T07:42:37.587Z,95.07
2018-08-30T07:44:29.612Z,89.21
2018-08-30T07:45:29.527Z,93.53
2018-08-30T07:47:21.568Z,94.35
2018-08-30T07:48:21.474Z,90.59
2018-08-30T07:50:13.401Z,89.73
2018-08-30T07:51:13.421Z,90.21
2018-08-30T07:53:05.358Z,95.84
2018-08-30T07:54:05.357Z,94.20
2018-08-30T07:55:57.330Z,94.59
2018-08-30T07:56:57.294Z,94.30
2018-08-30T07:58:49.223Z,96.89
2018-08-30T07:59:49.246Z,96.22
2018-08-30T08:01:41.176Z,96.94
2018-08-30T08:02:41.182Z,97.14
2018-08-30T08:04:33.180Z,99.99
2018-08-30T08:05:33.188Z,99.99
2018-08-30T08:07:25.232Z,99.99
2018-08-30T08:08:25.229Z,99.99
2018-08-30T08:10:17.262Z,97.86
2018-08-30T08:11:17.279Z,99.99
2018-08-30T08:13:09.292Z,99.99
2018-08-30T08:14:09.332Z,99.99
2018-08-30T08:16:01.320Z,99.99
2018-08-30T08:17:01.314Z,99.99
2018-08-30T08:18:53.360Z,99.99
2018-08-30T08:19:53.374Z,99.99
2018-08-30T08:21:45.386Z,99.99
2018-08-30T08:22:45.378Z,99.99
2018-08-30T08:24:37.398Z,99.99
2018-08-30T08:25:37.411Z,99.99
2018-08-30T08:27:29.447Z,99.99
2018-08-30T08:28:29.441Z,99.99
2018-08-30T08:30:21.461Z,99.99
2018-08-30T08:31:21.522Z,99.99
2018-08-30T08:33:13.508Z,99.99
2018-08-30T08:34:13.506Z,99.99
2018-08-30T08:36:05.541Z,99.99
2018-08-30T08:37:05.570Z,99.99
2018-08-30T08:38:57.573Z,99.99
2018-08-30T08:39:57.598Z,99.99
2018-08-30T08:41:49.602Z,99.99
2018-08-30T08:42:49.597Z,99.99
2018-08-30T08:44:41.631Z,99.99
2018-08-30T08:45:41.635Z,99.99
2018-08-30T08:47:34.195Z,99.99
2018-08-30T08:48:34.180Z,99.99
2018-08-30T08:50:26.195Z,99.99
2018-08-30T08:51:26.208Z,99.99
2018-08-30T08:53:19.585Z,99.99
2018-08-30T08:54:18.245Z,99.99
2018-08-30T08:56:10.252Z,99.99
2018-08-30T08:57:10.266Z,99.99
2018-08-30T08:59:02.359Z,99.99
2018-08-30T09:00:02.301Z,99.99
2018-08-30T09:01:54.364Z,99.99
2018-08-30T09:02:54.354Z,99.99
2018-08-30T09:04:46.614Z,99.99
2018-08-30T09:05:46.365Z,99.99
2018-08-30T09:07:38.457Z,99.99
2018-08-30T09:08:38.397Z,99.99
2018-08-30T09:10:30.416Z,99.99
2018-08-30T09:11:30.433Z,99.99
2018-08-30T09:13:27.203Z,99.99
2018-08-30T09:14:22.469Z,99.99
2018-08-30T09:15:22.484Z,99.99
2018-08-30T09:16:22.515Z,99.99
2018-08-30T09:17:22.522Z,99.99
2018-08-30T09:18:22.596Z,99.99
2018-08-30T09:19:22.570Z,99.99
2018-08-30T09:20:22.592Z,99.99
2018-08-30T09:21:22.622Z,99.99
2018-08-30T09:22:22.634Z,99.99
2018-08-30T09:23:22.656Z,99.99
2018-08-30T09:24:22.680Z,99.99
2018-08-30T09:25:22.703Z,99.99
2018-08-30T09:26:22.719Z,99.99
2018-08-30T09:27:22.743Z,99.99
2018-08-30T09:28:22.769Z,99.99
2018-08-30T09:29:22.783Z,99.99
2018-08-30T09:30:22.818Z,99.99
2018-08-30T09:31:22.825Z,99.99
2018-08-30T09:32:22.847Z,99.99
2018-08-30T09:33:22.865Z,99.99
2018-08-30T09:34:22.897Z,99.11
2018-08-30T09:35:22.913Z,99.99
2018-08-30T09:36:22.936Z,99.99
2018-08-30T09:37:22.953Z,99.88
2018-08-30T09:38:22.981Z,98.20
2018-08-30T09:39:22.997Z,99.88
2018-08-30T09:40:23.027Z,99.99
2018-08-30T09:41:23.045Z,99.99
2018-08-30T09:42:23.069Z,99.99
2018-08-30T09:43:23.095Z,99.99
2018-08-30T09:44:23.108Z,99.99
2018-08-30T09:45:23.135Z,99.99
2018-08-30T09:46:23.158Z,99.99
2018-08-30T09:47:23.179Z,99.99
2018-08-30T09:48:23.197Z,99.99
2018-08-30T09:49:23.253Z,99.99
2018-08-30T09:50:23.239Z,99.99
2018-08-30T09:51:23.265Z,99.99
2018-08-30T09:52:23.286Z,91.98
2018-08-30T09:53:23.312Z,94.96
2018-08-30T09:54:23.325Z,96.85
2018-08-30T09:55:23.355Z,94.54
2018-08-30T09:56:23.377Z,97.24
2018-08-30T09:57:23.598Z,93.33
2018-08-30T09:58:23.412Z,92.37
2018-08-30T09:59:23.440Z,94.10
2018-08-30T10:00:23.465Z,93.62
2018-08-30T10:01:23.489Z,94.06
2018-08-30T10:02:23.504Z,95.50
2018-08-30T10:03:23.523Z,98.10
2018-08-30T10:04:23.544Z,97.91
2018-08-30T10:05:23.566Z,98.19
2018-08-30T10:06:23.584Z,99.88
2018-08-30T10:07:23.611Z,99.99
2018-08-30T10:08:23.636Z,99.99
2018-08-30T10:09:23.653Z,99.99
2018-08-30T10:10:23.673Z,99.99
2018-08-30T10:11:23.697Z,99.30
2018-08-30T10:12:23.721Z,98.82
2018-08-30T10:13:23.737Z,97.52
2018-08-30T10:14:23.764Z,95.98
2018-08-30T10:15:23.783Z,94.48
2018-08-30T10:16:23.803Z,97.96
2018-08-30T10:17:23.829Z,98.92
2018-08-30T10:18:23.846Z,96.51
2018-08-30T10:19:23.871Z,91.20
2018-08-30T10:20:23.893Z,92.36
2018-08-30T10:21:23.948Z,93.91
2018-08-30T10:22:23.937Z,92.27
2018-08-30T10:23:23.957Z,91.60
2018-08-30T10:24:23.978Z,89.81
2018-08-30T10:25:24.048Z,91.64
2018-08-30T10:26:24.026Z,91.45
2018-08-30T10:27:24.045Z,95.02
2018-08-30T10:28:24.069Z,97.33
2018-08-30T10:29:24.087Z,98.29
2018-08-30T10:30:24.109Z,97.19
2018-08-30T10:31:24.219Z,99.99
2018-08-30T10:32:24.153Z,97.19
2018-08-30T10:33:24.175Z,91.27
2018-08-30T10:34:24.195Z,92.08
2018-08-30T10:35:24.219Z,94.29
2018-08-30T10:36:24.239Z,88.04
2018-08-30T10:37:24.261Z,87.41
2018-08-30T10:38:24.280Z,89.34
2018-08-30T10:39:24.307Z,91.36
2018-08-30T10:40:24.322Z,93.43
2018-08-30T10:41:24.345Z,91.12
2018-08-30T10:42:24.368Z,94.01
2018-08-30T10:43:24.387Z,88.61
2018-08-30T10:44:24.409Z,90.00
2018-08-30T10:45:24.434Z,96.17
2018-08-30T10:46:24.457Z,92.22
2018-08-30T10:47:24.504Z,95.40
2018-08-30T10:48:24.499Z,89.09
2018-08-30T10:49:24.570Z,85.42
2018-08-30T10:50:24.542Z,91.40
2018-08-30T10:51:24.567Z,89.57
2018-08-30T10:52:24.586Z,88.17
2018-08-30T10:53:24.606Z,93.38
2018-08-30T10:54:24.626Z,92.32
2018-08-30T10:55:24.649Z,90.25
2018-08-30T10:56:24.769Z,85.34
2018-08-30T10:57:24.692Z,88.04
2018-08-30T10:58:24.721Z,84.61
2018-08-30T10:59:24.737Z,78.34
2018-08-30T11:00:24.757Z,89.04
2018-08-30T11:01:24.783Z,84.70
2018-08-30T11:02:24.801Z,82.20
2018-08-30T11:03:24.825Z,82.68
2018-08-30T11:04:24.917Z,87.02
2018-08-30T11:05:24.868Z,80.66
2018-08-30T11:06:24.890Z,84.17
2018-08-30T11:07:24.916Z,78.00
2018-08-30T11:08:24.933Z,83.40
2018-08-30T11:09:24.953Z,74.49
2018-08-30T11:10:24.980Z,72.41
2018-08-30T11:11:25.002Z,70.38
2018-08-30T11:12:25.032Z,70.86
2018-08-30T11:13:25.090Z,76.45
2018-08-30T11:14:25.061Z,78.61
2018-08-30T11:15:25.083Z,78.42
2018-08-30T11:16:25.107Z,72.34
2018-08-30T11:17:25.133Z,66.75
2018-08-30T11:18:25.156Z,67.58
2018-08-30T11:19:25.230Z,67.10
2018-08-30T11:20:25.196Z,69.64
2018-08-30T11:21:25.214Z,68.77
2018-08-30T11:22:25.239Z,69.07
2018-08-30T11:23:25.265Z,67.43
2018-08-30T11:24:25.307Z,63.37
2018-08-30T11:25:25.304Z,63.18
2018-08-30T11:26:25.326Z,65.08
2018-08-30T11:27:25.349Z,64.31
2018-08-30T11:28:25.367Z,66.33
2018-08-30T11:29:25.390Z,68.45
2018-08-30T11:30:25.410Z,68.45
2018-08-30T11:31:25.440Z,70.00
2018-08-30T11:32:25.455Z,69.03
2018-08-30T11:33:25.479Z,69.71
2018-08-30T11:34:25.503Z,69.03
2018-08-30T11:35:25.519Z,69.80
2018-08-30T11:36:25.546Z,75.59
2018-08-30T11:37:25.562Z,77.71
2018-08-30T11:38:25.593Z,81.57
2018-08-30T11:39:25.616Z,81.57
2018-08-30T11:40:25.634Z,78.58
2018-08-30T11:41:25.701Z,83.45
2018-08-30T11:42:25.686Z,83.45
2018-08-30T11:43:25.746Z,79.69
2018-08-30T11:44:25.722Z,82.78
2018-08-30T11:45:25.747Z,81.18
2018-08-30T11:46:25.768Z,85.52
2018-08-30T11:47:25.789Z,81.27
2018-08-30T11:48:25.813Z,88.17
2018-08-30T11:49:25.829Z,85.85
2018-08-30T11:50:25.848Z,75.43
2018-08-30T11:51:25.875Z,70.84
2018-08-30T11:52:25.995Z,74.12
2018-08-30T11:53:25.923Z,77.69
2018-08-30T11:54:25.938Z,69.62
2018-08-30T11:55:25.962Z,68.75
2018-08-30T11:56:25.987Z,64.11
2018-08-30T11:57:26.008Z,67.04
2018-08-30T11:58:26.029Z,68.98
2018-08-30T11:59:26.056Z,61.63
2018-08-30T12:00:26.074Z,60.96
2018-08-30T12:01:26.094Z,62.89
2018-08-30T12:02:26.117Z,60.38
2018-08-30T12:03:26.143Z,62.79
2018-08-30T12:04:26.162Z,61.18
2018-08-30T12:05:26.189Z,61.86
2018-08-30T12:06:26.211Z,65.14
2018-08-30T12:07:26.230Z,60.41
2018-08-30T12:08:26.332Z,58.83
2018-08-30T12:09:26.276Z,60.54
2018-08-30T12:10:26.381Z,62.15
2018-08-30T12:11:26.359Z,62.22
2018-08-30T12:12:26.346Z,64.40
2018-08-30T12:13:26.372Z,65.81
2018-08-30T12:14:26.393Z,64.08
2018-08-30T12:15:26.413Z,65.66
2018-08-30T12:16:26.437Z,65.75
2018-08-30T12:17:26.499Z,62.45
2018-08-30T12:18:26.480Z,64.95
2018-08-30T12:19:26.504Z,68.90
2018-08-30T12:20:26.591Z,71.22
2018-08-30T12:21:26.546Z,69.73
2018-08-30T12:22:26.568Z,70.92
2018-08-30T12:23:26.590Z,76.90
2018-08-30T12:24:26.613Z,78.54
2018-08-30T12:25:26.637Z,77.38
2018-08-30T12:26:26.658Z,76.80
2018-08-30T12:27:26.680Z,75.55
2018-08-30T12:28:26.724Z,75.07
2018-08-30T12:29:26.728Z,72.95
2018-08-30T12:30:26.792Z,74.10
2018-08-30T12:31:26.863Z,73.62
2018-08-30T12:32:26.817Z,74.20
2018-08-30T12:33:26.853Z,76.96
2018-08-30T12:34:26.850Z,76.38
2018-08-30T12:35:26.925Z,76.76
2018-08-30T12:36:26.879Z,79.17
2018-08-30T12:37:26.959Z,77.63
2018-08-30T12:38:26.928Z,81.06
2018-08-30T12:39:27.004Z,79.75
2018-08-30T12:40:27.109Z,82.68
2018-08-30T12:41:27.048Z,79.25
2018-08-30T12:42:27.051Z,81.37
2018-08-30T12:43:27.154Z,77.36
2018-08-30T12:44:27.072Z,74.27
2018-08-30T12:45:27.076Z,77.75
2018-08-30T12:46:27.120Z,82.48
2018-08-30T12:47:27.117Z,80.99
2018-08-30T12:48:27.136Z,78.52
2018-08-30T12:49:27.174Z,80.51
2018-08-30T12:50:27.338Z,81.27
2018-08-30T12:51:27.540Z,85.52
2018-08-30T12:52:27.321Z,79.74
2018-08-30T12:53:27.374Z,82.72
2018-08-30T12:54:27.361Z,79.50
2018-08-30T12:55:27.400Z,76.86
2018-08-30T12:56:27.370Z,81.20
2018-08-30T12:57:27.425Z,75.23
2018-08-30T12:58:27.556Z,78.73
2018-08-30T12:59:27.491Z,74.88
2018-08-30T13:00:27.489Z,64.53
2018-08-30T13:01:27.595Z,65.78
2018-08-30T13:02:27.640Z,61.65
2018-08-30T13:03:27.629Z,66.01
2018-08-30T13:04:27.804Z,64.76
2018-08-30T13:05:27.907Z,61.90
2018-08-30T13:06:27.741Z,61.80
2018-08-30T13:07:27.807Z,59.87
2018-08-30T13:08:27.873Z,57.65
2018-08-30T13:09:27.791Z,55.24
2018-08-30T13:10:27.910Z,56.09
2018-08-30T13:11:27.874Z,57.75
2018-08-30T13:12:28.019Z,57.56
2018-08-30T13:13:27.999Z,57.94
2018-08-30T13:14:27.892Z,61.61
2018-08-30T13:15:28.119Z,59.39
2018-08-30T13:16:27.906Z,60.58
2018-08-30T13:17:27.977Z,61.54
2018-08-30T13:18:28.061Z,61.74
2018-08-30T13:19:28.251Z,60.58
2018-08-30T13:20:28.133Z,59.32
2018-08-30T13:21:28.218Z,60.48
2018-08-30T13:22:28.179Z,59.32
2018-08-30T13:23:28.202Z,61.64
2018-08-30T13:24:28.311Z,59.90
2018-08-30T13:25:28.312Z,60.71
2018-08-30T13:26:28.188Z,61.86
2018-08-30T13:27:28.323Z,60.41
2018-08-30T13:28:28.388Z,59.25
2018-08-30T13:29:28.448Z,59.55
2018-08-30T13:30:28.509Z,60.44
2018-08-30T13:31:28.418Z,61.70
2018-08-30T13:32:28.655Z,58.90
2018-08-30T13:33:28.559Z,57.84
2018-08-30T13:34:28.510Z,59.31
2018-08-30T13:35:28.569Z,60.35
2018-08-30T13:36:28.531Z,59.19
2018-08-30T13:37:28.683Z,59.77
2018-08-30T13:38:28.649Z,58.51
2018-08-30T13:39:28.748Z,59.38
2018-08-30T13:40:28.601Z,57.90
2018-08-30T13:41:28.844Z,59.16
2018-08-30T13:42:28.619Z,59.45
2018-08-30T13:43:28.595Z,60.41
2018-08-30T13:44:28.850Z,59.23
2018-08-30T13:45:28.799Z,57.68
2018-08-30T13:46:28.866Z,59.30
2018-08-30T13:47:28.757Z,59.48
2018-08-30T13:48:28.833Z,58.14
2018-08-30T13:49:28.708Z,57.65
2018-08-30T13:50:29.058Z,56.47
2018-08-30T13:51:28.854Z,57.72
2018-08-30T13:52:29.034Z,58.11
2018-08-30T13:53:28.975Z,59.17
2018-08-30T13:54:28.965Z,57.21
2018-08-30T13:55:28.942Z,59.27
2018-08-30T13:56:29.060Z,62.45
2018-08-30T13:57:29.196Z,60.71
2018-08-30T13:58:29.330Z,61.00
2018-08-30T13:59:29.303Z,59.78
2018-08-30T14:00:29.450Z,61.51
2018-08-30T14:01:29.685Z,58.04
2018-08-30T14:02:29.183Z,58.94
2018-08-30T14:03:29.008Z,57.49
2018-08-30T14:04:29.290Z,56.14
2018-08-30T14:05:29.276Z,55.46
2018-08-30T14:06:29.070Z,53.53
2018-08-30T14:07:29.283Z,54.02
2018-08-30T14:08:29.107Z,53.56
2018-08-30T14:09:29.325Z,53.17
2018-08-30T14:10:29.408Z,52.21
2018-08-30T14:11:29.279Z,51.25
2018-08-30T14:12:29.271Z,51.92
2018-08-30T14:13:29.464Z,52.11
2018-08-30T14:14:29.425Z,51.34
2018-08-30T14:15:29.349Z,53.37
2018-08-30T14:16:29.081Z,51.63
2018-08-30T14:17:29.086Z,55.01
2018-08-30T14:18:29.170Z,53.08
2018-08-30T14:19:29.164Z,52.59
2018-08-30T14:20:29.153Z,50.57
2018-08-30T14:21:29.318Z,50.57
2018-08-30T14:22:29.200Z,50.67
2018-08-30T14:23:29.318Z,50.26
2018-08-30T14:24:29.238Z,50.84
2018-08-30T14:25:29.270Z,51.22
2018-08-30T14:26:29.283Z,50.16
2018-08-30T14:27:29.326Z,50.45
2018-08-30T14:28:29.336Z,51.53
2018-08-30T14:29:29.348Z,53.27
2018-08-30T14:30:29.374Z,53.37
2018-08-30T14:31:29.396Z,55.20
2018-08-30T14:32:29.417Z,55.01
2018-08-30T14:33:29.509Z,56.46
2018-08-30T14:34:29.601Z,55.68
2018-08-30T14:35:29.504Z,57.14
2018-08-30T14:36:29.513Z,56.62
2018-08-30T14:37:29.541Z,57.87
2018-08-30T14:38:29.598Z,57.52
2018-08-30T14:39:29.568Z,58.77
2018-08-30T14:40:29.647Z,59.16
2018-08-30T14:41:29.822Z,54.60
2018-08-30T14:42:29.782Z,55.27
2018-08-30T14:43:29.658Z,54.98
2018-08-30T14:44:29.679Z,56.04
2018-08-30T14:45:29.703Z,54.60
2018-08-30T14:46:29.722Z,55.30
2018-08-30T14:47:29.865Z,55.40
2018-08-30T14:48:29.770Z,53.95
2018-08-30T14:49:29.791Z,53.95
2018-08-30T14:50:29.808Z,55.20
2018-08-30T14:51:29.830Z,52.11
2018-08-30T14:52:29.855Z,53.08
2018-08-30T14:53:29.884Z,53.37
2018-08-30T14:54:29.969Z,53.75
2018-08-30T14:55:29.922Z,53.95
2018-08-30T14:56:29.948Z,54.02
2018-08-30T14:57:29.977Z,53.25
2018-08-30T14:58:29.986Z,53.44
2018-08-30T14:59:30.093Z,54.40
2018-08-30T15:00:30.118Z,53.92
2018-08-30T15:01:30.085Z,53.61
2018-08-30T15:02:30.077Z,53.70
2018-08-30T15:03:30.211Z,52.93
2018-08-30T15:04:30.125Z,53.13
2018-08-30T15:05:30.439Z,52.45
2018-08-30T15:06:30.162Z,53.03
2018-08-30T15:07:30.186Z,52.83
2018-08-30T15:08:30.210Z,53.22
2018-08-30T15:09:30.228Z,53.39
2018-08-30T15:10:30.261Z,54.35
2018-08-30T15:11:30.443Z,55.12
2018-08-30T15:12:30.297Z,55.12
2018-08-30T15:13:30.312Z,56.18